sensor_id;sensor_type;location;lat;lon;timestamp;temperature;humidity
68450;SHT30;67758;39.572;2.652;2023-07-29T00:02:05;26.65;83.29
68450;SHT30;67758;39.572;2.652;2023-07-29T00:04:30;26.51;82.84
68450;SHT30;67758;39.572;2.652;2023-07-29T00:06:56;26.42;82.63
68450;SHT30;67758;39.572;2.652;2023-07-29T00:09:22;26.35;82.91
68450;SHT30;67758;39.572;2.652;2023-07-29T00:11:47;26.36;82.65
68450;SHT30;67758;39.572;2.652;2023-07-29T00:14:13;26.35;82.64
68450;SHT30;67758;39.572;2.652;2023-07-29T00:16:38;26.34;82.58
68450;SHT30;67758;39.572;2.652;2023-07-29T00:19:04;26.28;82.59
68450;SHT30;67758;39.572;2.652;2023-07-29T00:21:29;26.24;82.56
68450;SHT30;67758;39.572;2.652;2023-07-29T00:23:55;26.24;82.82
68450;SHT30;67758;39.572;2.652;2023-07-29T00:26:24;26.24;83.07
68450;SHT30;67758;39.572;2.652;2023-07-29T00:28:51;26.21;83.20
68450;SHT30;67758;39.572;2.652;2023-07-29T00:31:17;26.17;83.15
68450;SHT30;67758;39.572;2.652;2023-07-29T00:33:43;26.18;83.00
68450;SHT30;67758;39.572;2.652;2023-07-29T00:36:08;26.15;83.12
68450;SHT30;67758;39.572;2.652;2023-07-29T00:38:34;26.20;82.88
68450;SHT30;67758;39.572;2.652;2023-07-29T00:41:01;26.15;83.07
68450;SHT30;67758;39.572;2.652;2023-07-29T00:43:27;26.17;83.18
68450;SHT30;67758;39.572;2.652;2023-07-29T00:45:56;26.12;83.35
68450;SHT30;67758;39.572;2.652;2023-07-29T00:48:23;26.14;83.35
68450;SHT30;67758;39.572;2.652;2023-07-29T00:50:49;26.12;83.39
68450;SHT30;67758;39.572;2.652;2023-07-29T00:53:15;26.09;83.49
68450;SHT30;67758;39.572;2.652;2023-07-29T00:55:41;26.09;83.56
68450;SHT30;67758;39.572;2.652;2023-07-29T00:58:07;26.05;83.66
68450;SHT30;67758;39.572;2.652;2023-07-29T01:00:33;26.08;83.73
68450;SHT30;67758;39.572;2.652;2023-07-29T01:02:59;26.08;83.73
68450;SHT30;67758;39.572;2.652;2023-07-29T01:05:27;26.05;84.10
68450;SHT30;67758;39.572;2.652;2023-07-29T01:08:01;26.05;84.14
68450;SHT30;67758;39.572;2.652;2023-07-29T01:13:30;26.01;84.26
68450;SHT30;67758;39.572;2.652;2023-07-29T01:16:04;25.98;84.37
68450;SHT30;67758;39.572;2.652;2023-07-29T01:18:35;25.95;84.50
68450;SHT30;67758;39.572;2.652;2023-07-29T01:21:07;26.04;84.30
68450;SHT30;67758;39.572;2.652;2023-07-29T01:23:34;26.01;84.11
68450;SHT30;67758;39.572;2.652;2023-07-29T01:26:00;25.95;83.94
68450;SHT30;67758;39.572;2.652;2023-07-29T01:28:27;25.93;84.10
68450;SHT30;67758;39.572;2.652;2023-07-29T01:31:01;25.91;84.45
68450;SHT30;67758;39.572;2.652;2023-07-29T01:33:32;25.84;84.57
68450;SHT30;67758;39.572;2.652;2023-07-29T01:36:05;25.84;84.53
68450;SHT30;67758;39.572;2.652;2023-07-29T01:38:33;25.83;84.70
68450;SHT30;67758;39.572;2.652;2023-07-29T01:41:01;25.77;84.92
68450;SHT30;67758;39.572;2.652;2023-07-29T01:43:31;25.74;84.87
68450;SHT30;67758;39.572;2.652;2023-07-29T01:45:57;25.70;84.91
68450;SHT30;67758;39.572;2.652;2023-07-29T01:48:23;25.67;85.01
68450;SHT30;67758;39.572;2.652;2023-07-29T01:50:49;25.61;85.15
68450;SHT30;67758;39.572;2.652;2023-07-29T01:53:15;25.66;85.16
68450;SHT30;67758;39.572;2.652;2023-07-29T01:55:42;25.63;85.18
68450;SHT30;67758;39.572;2.652;2023-07-29T01:58:07;25.60;85.37
68450;SHT30;67758;39.572;2.652;2023-07-29T02:00:33;25.57;85.44
68450;SHT30;67758;39.572;2.652;2023-07-29T02:02:58;25.59;85.41
68450;SHT30;67758;39.572;2.652;2023-07-29T02:05:24;25.53;85.49
68450;SHT30;67758;39.572;2.652;2023-07-29T02:07:49;25.51;85.42
68450;SHT30;67758;39.572;2.652;2023-07-29T02:10:15;25.56;85.42
68450;SHT30;67758;39.572;2.652;2023-07-29T02:12:41;25.53;85.49
68450;SHT30;67758;39.572;2.652;2023-07-29T02:15:07;25.53;85.76
68450;SHT30;67758;39.572;2.652;2023-07-29T02:17:34;25.54;85.69
68450;SHT30;67758;39.572;2.652;2023-07-29T02:19:59;25.47;85.97
68450;SHT30;67758;39.572;2.652;2023-07-29T02:22:25;25.46;85.70
68450;SHT30;67758;39.572;2.652;2023-07-29T02:24:50;25.49;85.54
68450;SHT30;67758;39.572;2.652;2023-07-29T02:27:16;25.43;85.60
68450;SHT30;67758;39.572;2.652;2023-07-29T02:29:42;25.46;85.30
68450;SHT30;67758;39.572;2.652;2023-07-29T02:32:07;25.47;85.16
68450;SHT30;67758;39.572;2.652;2023-07-29T02:34:33;25.44;85.14
68450;SHT30;67758;39.572;2.652;2023-07-29T02:36:59;25.46;85.12
68450;SHT30;67758;39.572;2.652;2023-07-29T02:39:25;25.50;85.13
68450;SHT30;67758;39.572;2.652;2023-07-29T02:41:51;25.47;85.10
68450;SHT30;67758;39.572;2.652;2023-07-29T02:44:17;25.49;85.09
68450;SHT30;67758;39.572;2.652;2023-07-29T02:46:44;25.50;85.04
68450;SHT30;67758;39.572;2.652;2023-07-29T02:49:10;25.53;84.98
68450;SHT30;67758;39.572;2.652;2023-07-29T02:51:35;25.42;85.18
68450;SHT30;67758;39.572;2.652;2023-07-29T02:54:01;25.39;85.22
68450;SHT30;67758;39.572;2.652;2023-07-29T02:56:27;25.36;85.02
68450;SHT30;67758;39.572;2.652;2023-07-29T02:58:53;25.30;84.97
68450;SHT30;67758;39.572;2.652;2023-07-29T03:01:18;25.26;84.90
68450;SHT30;67758;39.572;2.652;2023-07-29T03:03:44;25.23;84.91
68450;SHT30;67758;39.572;2.652;2023-07-29T03:06:12;25.23;84.92
68450;SHT30;67758;39.572;2.652;2023-07-29T03:08:38;25.22;84.84
68450;SHT30;67758;39.572;2.652;2023-07-29T03:11:08;25.19;84.93
68450;SHT30;67758;39.572;2.652;2023-07-29T03:13:34;25.16;84.81
68450;SHT30;67758;39.572;2.652;2023-07-29T03:16:07;25.13;84.81
68450;SHT30;67758;39.572;2.652;2023-07-29T03:18:33;25.12;84.86
68450;SHT30;67758;39.572;2.652;2023-07-29T03:20:59;25.10;84.91
68450;SHT30;67758;39.572;2.652;2023-07-29T03:23:24;25.09;85.01
68450;SHT30;67758;39.572;2.652;2023-07-29T03:25:50;24.99;85.29
68450;SHT30;67758;39.572;2.652;2023-07-29T03:28:23;24.99;85.23
68450;SHT30;67758;39.572;2.652;2023-07-29T03:30:49;25.02;85.02
68450;SHT30;67758;39.572;2.652;2023-07-29T03:33:14;25.02;84.85
68450;SHT30;67758;39.572;2.652;2023-07-29T03:35:40;25.02;84.52
68450;SHT30;67758;39.572;2.652;2023-07-29T03:38:10;24.99;84.38
68450;SHT30;67758;39.572;2.652;2023-07-29T03:40:36;24.93;84.33
68450;SHT30;67758;39.572;2.652;2023-07-29T03:43:02;24.92;84.22
68450;SHT30;67758;39.572;2.652;2023-07-29T03:45:28;24.89;84.04
68450;SHT30;67758;39.572;2.652;2023-07-29T03:47:53;24.82;84.03
68450;SHT30;67758;39.572;2.652;2023-07-29T03:50:19;24.78;84.02
68450;SHT30;67758;39.572;2.652;2023-07-29T03:52:44;24.73;83.88
68450;SHT30;67758;39.572;2.652;2023-07-29T03:55:10;24.72;83.95
68450;SHT30;67758;39.572;2.652;2023-07-29T03:57:36;24.68;83.89
68450;SHT30;67758;39.572;2.652;2023-07-29T04:00:02;24.59;83.92
68450;SHT30;67758;39.572;2.652;2023-07-29T04:02:27;24.55;83.98
68450;SHT30;67758;39.572;2.652;2023-07-29T04:04:53;24.49;83.87
68450;SHT30;67758;39.572;2.652;2023-07-29T04:07:18;24.45;83.57
68450;SHT30;67758;39.572;2.652;2023-07-29T04:09:44;24.44;83.22
68450;SHT30;67758;39.572;2.652;2023-07-29T04:12:10;24.40;83.24
68450;SHT30;67758;39.572;2.652;2023-07-29T04:14:36;24.27;83.05
68450;SHT30;67758;39.572;2.652;2023-07-29T04:17:01;24.18;82.86
68450;SHT30;67758;39.572;2.652;2023-07-29T04:19:27;24.07;82.90
68450;SHT30;67758;39.572;2.652;2023-07-29T04:21:53;23.96;82.32
68450;SHT30;67758;39.572;2.652;2023-07-29T04:24:18;23.89;81.85
68450;SHT30;67758;39.572;2.652;2023-07-29T04:26:45;23.76;80.58
68450;SHT30;67758;39.572;2.652;2023-07-29T04:29:11;23.63;79.67
68450;SHT30;67758;39.572;2.652;2023-07-29T04:31:37;23.60;79.08
68450;SHT30;67758;39.572;2.652;2023-07-29T04:34:04;23.56;78.60
68450;SHT30;67758;39.572;2.652;2023-07-29T04:36:30;23.59;74.67
68450;SHT30;67758;39.572;2.652;2023-07-29T04:38:56;23.59;74.15
68450;SHT30;67758;39.572;2.652;2023-07-29T04:41:21;23.65;72.33
68450;SHT30;67758;39.572;2.652;2023-07-29T04:43:47;23.70;71.35
68450;SHT30;67758;39.572;2.652;2023-07-29T04:46:15;23.77;69.99
68450;SHT30;67758;39.572;2.652;2023-07-29T04:48:40;23.89;68.45
68450;SHT30;67758;39.572;2.652;2023-07-29T04:51:06;23.92;68.40
68450;SHT30;67758;39.572;2.652;2023-07-29T04:53:32;23.98;67.78
68450;SHT30;67758;39.572;2.652;2023-07-29T04:55:58;24.00;66.74
68450;SHT30;67758;39.572;2.652;2023-07-29T04:58:23;24.03;66.14
68450;SHT30;67758;39.572;2.652;2023-07-29T05:00:49;24.11;66.56
68450;SHT30;67758;39.572;2.652;2023-07-29T05:03:15;24.08;66.22
68450;SHT30;67758;39.572;2.652;2023-07-29T05:05:40;24.18;65.61
68450;SHT30;67758;39.572;2.652;2023-07-29T05:08:06;24.20;65.43
68450;SHT30;67758;39.572;2.652;2023-07-29T05:10:31;24.25;65.99
68450;SHT30;67758;39.572;2.652;2023-07-29T05:12:57;24.25;65.44
68450;SHT30;67758;39.572;2.652;2023-07-29T05:15:23;24.25;65.54
68450;SHT30;67758;39.572;2.652;2023-07-29T05:17:48;24.22;65.51
68450;SHT30;67758;39.572;2.652;2023-07-29T05:20:14;24.24;65.59
68450;SHT30;67758;39.572;2.652;2023-07-29T05:22:39;24.25;65.56
68450;SHT30;67758;39.572;2.652;2023-07-29T05:25:05;24.25;65.63
68450;SHT30;67758;39.572;2.652;2023-07-29T05:27:31;24.28;65.66
68450;SHT30;67758;39.572;2.652;2023-07-29T05:29:57;24.27;65.68
68450;SHT30;67758;39.572;2.652;2023-07-29T05:32:22;24.25;65.58
68450;SHT30;67758;39.572;2.652;2023-07-29T05:34:48;24.24;65.44
68450;SHT30;67758;39.572;2.652;2023-07-29T05:37:14;24.27;65.42
68450;SHT30;67758;39.572;2.652;2023-07-29T05:39:39;24.34;64.93
68450;SHT30;67758;39.572;2.652;2023-07-29T05:42:05;24.40;64.50
68450;SHT30;67758;39.572;2.652;2023-07-29T05:44:31;24.42;64.16
68450;SHT30;67758;39.572;2.652;2023-07-29T05:46:57;24.47;63.58
68450;SHT30;67758;39.572;2.652;2023-07-29T05:49:23;24.49;63.07
68450;SHT30;67758;39.572;2.652;2023-07-29T05:51:48;24.55;62.97
68450;SHT30;67758;39.572;2.652;2023-07-29T05:54:17;24.59;62.03
68450;SHT30;67758;39.572;2.652;2023-07-29T05:56:43;24.68;61.54
68450;SHT30;67758;39.572;2.652;2023-07-29T05:59:09;24.72;61.13
68450;SHT30;67758;39.572;2.652;2023-07-29T06:01:34;24.76;60.38
68450;SHT30;67758;39.572;2.652;2023-07-29T06:04:00;24.81;60.25
68450;SHT30;67758;39.572;2.652;2023-07-29T06:06:26;24.88;60.29
68450;SHT30;67758;39.572;2.652;2023-07-29T06:08:52;24.91;60.11
68450;SHT30;67758;39.572;2.652;2023-07-29T06:11:18;24.95;60.02
68450;SHT30;67758;39.572;2.652;2023-07-29T06:13:43;25.09;59.99
68450;SHT30;67758;39.572;2.652;2023-07-29T06:16:09;25.10;59.42
68450;SHT30;67758;39.572;2.652;2023-07-29T06:18:35;25.20;58.83
68450;SHT30;67758;39.572;2.652;2023-07-29T06:21:00;25.27;58.97
68450;SHT30;67758;39.572;2.652;2023-07-29T06:23:26;25.33;59.21
68450;SHT30;67758;39.572;2.652;2023-07-29T06:25:51;25.40;59.37
68450;SHT30;67758;39.572;2.652;2023-07-29T06:28:17;25.46;60.59
68450;SHT30;67758;39.572;2.652;2023-07-29T06:30:43;25.57;61.92
68450;SHT30;67758;39.572;2.652;2023-07-29T06:33:08;25.59;62.71
68450;SHT30;67758;39.572;2.652;2023-07-29T06:35:34;25.69;63.58
68450;SHT30;67758;39.572;2.652;2023-07-29T06:38:01;25.75;63.99
68450;SHT30;67758;39.572;2.652;2023-07-29T06:40:27;25.78;64.32
68450;SHT30;67758;39.572;2.652;2023-07-29T06:42:52;25.85;64.40
68450;SHT30;67758;39.572;2.652;2023-07-29T06:45:18;25.87;65.41
68450;SHT30;67758;39.572;2.652;2023-07-29T06:47:44;25.94;65.45
68450;SHT30;67758;39.572;2.652;2023-07-29T06:50:10;26.02;65.72
68450;SHT30;67758;39.572;2.652;2023-07-29T06:52:36;26.22;65.53
68450;SHT30;67758;39.572;2.652;2023-07-29T06:55:03;26.29;65.71
68450;SHT30;67758;39.572;2.652;2023-07-29T06:57:29;26.25;66.37
68450;SHT30;67758;39.572;2.652;2023-07-29T06:59:55;26.24;67.79
68450;SHT30;67758;39.572;2.652;2023-07-29T07:02:20;26.15;68.66
68450;SHT30;67758;39.572;2.652;2023-07-29T07:04:46;26.22;68.82
68450;SHT30;67758;39.572;2.652;2023-07-29T07:07:12;26.24;69.73
68450;SHT30;67758;39.572;2.652;2023-07-29T07:09:37;26.32;69.44
68450;SHT30;67758;39.572;2.652;2023-07-29T07:12:06;26.36;69.46
68450;SHT30;67758;39.572;2.652;2023-07-29T07:14:32;26.38;69.66
68450;SHT30;67758;39.572;2.652;2023-07-29T07:16:57;26.45;69.44
68450;SHT30;67758;39.572;2.652;2023-07-29T07:19:23;26.53;70.02
68450;SHT30;67758;39.572;2.652;2023-07-29T07:21:48;26.56;70.07
68450;SHT30;67758;39.572;2.652;2023-07-29T07:24:14;26.60;71.38
68450;SHT30;67758;39.572;2.652;2023-07-29T07:26:39;26.62;70.40
68450;SHT30;67758;39.572;2.652;2023-07-29T07:29:05;26.72;70.53
68450;SHT30;67758;39.572;2.652;2023-07-29T07:31:33;26.78;70.32
68450;SHT30;67758;39.572;2.652;2023-07-29T07:33:59;26.82;70.21
68450;SHT30;67758;39.572;2.652;2023-07-29T07:36:24;26.85;70.41
68450;SHT30;67758;39.572;2.652;2023-07-29T07:38:50;26.87;70.10
68450;SHT30;67758;39.572;2.652;2023-07-29T07:41:15;26.99;70.09
68450;SHT30;67758;39.572;2.652;2023-07-29T07:43:41;27.10;69.34
68450;SHT30;67758;39.572;2.652;2023-07-29T07:46:07;27.18;69.29
68450;SHT30;67758;39.572;2.652;2023-07-29T07:48:32;27.33;68.69
68450;SHT30;67758;39.572;2.652;2023-07-29T07:50:58;27.38;68.80
68450;SHT30;67758;39.572;2.652;2023-07-29T07:53:24;27.47;69.60
68450;SHT30;67758;39.572;2.652;2023-07-29T07:55:51;27.54;69.75
68450;SHT30;67758;39.572;2.652;2023-07-29T07:58:16;27.59;68.74
68450;SHT30;67758;39.572;2.652;2023-07-29T08:00:42;27.72;68.31
68450;SHT30;67758;39.572;2.652;2023-07-29T08:03:08;27.80;68.09
68450;SHT30;67758;39.572;2.652;2023-07-29T08:05:34;27.92;68.10
68450;SHT30;67758;39.572;2.652;2023-07-29T08:07:59;27.98;68.78
68450;SHT30;67758;39.572;2.652;2023-07-29T08:10:25;28.01;69.84
68450;SHT30;67758;39.572;2.652;2023-07-29T08:12:51;28.01;69.47
68450;SHT30;67758;39.572;2.652;2023-07-29T08:15:16;28.05;71.95
68450;SHT30;67758;39.572;2.652;2023-07-29T08:17:42;28.02;72.27
68450;SHT30;67758;39.572;2.652;2023-07-29T08:20:08;27.89;73.26
68450;SHT30;67758;39.572;2.652;2023-07-29T08:22:34;27.82;73.91
68450;SHT30;67758;39.572;2.652;2023-07-29T08:25:00;27.81;73.15
68450;SHT30;67758;39.572;2.652;2023-07-29T08:27:25;27.84;74.15
68450;SHT30;67758;39.572;2.652;2023-07-29T08:29:51;27.85;73.92
68450;SHT30;67758;39.572;2.652;2023-07-29T08:32:18;27.88;74.71
68450;SHT30;67758;39.572;2.652;2023-07-29T08:34:44;27.96;73.29
68450;SHT30;67758;39.572;2.652;2023-07-29T08:37:10;27.96;72.20
68450;SHT30;67758;39.572;2.652;2023-07-29T08:39:35;28.05;71.67
68450;SHT30;67758;39.572;2.652;2023-07-29T08:42:05;28.08;71.16
68450;SHT30;67758;39.572;2.652;2023-07-29T08:44:43;28.09;71.40
68450;SHT30;67758;39.572;2.652;2023-07-29T08:47:09;28.13;71.09
68450;SHT30;67758;39.572;2.652;2023-07-29T08:49:36;28.15;72.05
68450;SHT30;67758;39.572;2.652;2023-07-29T08:52:02;28.18;72.43
68450;SHT30;67758;39.572;2.652;2023-07-29T08:54:29;28.20;72.38
68450;SHT30;67758;39.572;2.652;2023-07-29T08:56:54;28.13;71.65
68450;SHT30;67758;39.572;2.652;2023-07-29T08:59:21;28.09;73.63
68450;SHT30;67758;39.572;2.652;2023-07-29T09:01:47;28.12;74.96
68450;SHT30;67758;39.572;2.652;2023-07-29T09:04:13;28.05;75.53
68450;SHT30;67758;39.572;2.652;2023-07-29T09:06:39;28.10;75.71
68450;SHT30;67758;39.572;2.652;2023-07-29T09:09:07;28.20;76.07
68450;SHT30;67758;39.572;2.652;2023-07-29T09:11:33;28.22;76.05
68450;SHT30;67758;39.572;2.652;2023-07-29T09:13:59;28.28;76.54
68450;SHT30;67758;39.572;2.652;2023-07-29T09:16:26;28.42;75.32
68450;SHT30;67758;39.572;2.652;2023-07-29T09:18:51;28.49;75.08
68450;SHT30;67758;39.572;2.652;2023-07-29T09:21:22;28.56;75.10
68450;SHT30;67758;39.572;2.652;2023-07-29T09:23:50;28.64;74.80
68450;SHT30;67758;39.572;2.652;2023-07-29T09:26:25;28.66;74.74
68450;SHT30;67758;39.572;2.652;2023-07-29T09:28:56;28.70;74.46
68450;SHT30;67758;39.572;2.652;2023-07-29T09:31:23;28.64;74.54
68450;SHT30;67758;39.572;2.652;2023-07-29T09:33:49;28.81;73.82
68450;SHT30;67758;39.572;2.652;2023-07-29T09:36:15;28.97;73.30
68450;SHT30;67758;39.572;2.652;2023-07-29T09:38:41;29.17;72.59
68450;SHT30;67758;39.572;2.652;2023-07-29T09:41:12;29.00;72.90
68450;SHT30;67758;39.572;2.652;2023-07-29T09:43:37;29.11;72.65
68450;SHT30;67758;39.572;2.652;2023-07-29T09:46:04;29.25;71.86
68450;SHT30;67758;39.572;2.652;2023-07-29T09:48:38;29.22;71.60
68450;SHT30;67758;39.572;2.652;2023-07-29T09:51:16;29.44;71.11
68450;SHT30;67758;39.572;2.652;2023-07-29T09:53:46;29.28;70.44
68450;SHT30;67758;39.572;2.652;2023-07-29T09:56:13;29.34;71.29
68450;SHT30;67758;39.572;2.652;2023-07-29T09:58:39;29.51;71.29
68450;SHT30;67758;39.572;2.652;2023-07-29T10:01:06;29.35;71.42
68450;SHT30;67758;39.572;2.652;2023-07-29T10:03:32;29.45;70.68
68450;SHT30;67758;39.572;2.652;2023-07-29T10:06:03;29.49;71.40
68450;SHT30;67758;39.572;2.652;2023-07-29T10:08:32;29.61;71.67
68450;SHT30;67758;39.572;2.652;2023-07-29T10:11:01;29.55;71.70
68450;SHT30;67758;39.572;2.652;2023-07-29T10:13:27;29.68;71.35
68450;SHT30;67758;39.572;2.652;2023-07-29T10:15:56;29.68;71.11
68450;SHT30;67758;39.572;2.652;2023-07-29T10:18:23;29.73;72.16
68450;SHT30;67758;39.572;2.652;2023-07-29T10:20:52;29.71;73.15
68450;SHT30;67758;39.572;2.652;2023-07-29T10:23:21;29.82;72.46
68450;SHT30;67758;39.572;2.652;2023-07-29T10:25:59;29.92;73.20
68450;SHT30;67758;39.572;2.652;2023-07-29T10:28:29;30.14;70.79
68450;SHT30;67758;39.572;2.652;2023-07-29T10:30:56;30.24;71.01
68450;SHT30;67758;39.572;2.652;2023-07-29T10:33:22;30.24;72.55
68450;SHT30;67758;39.572;2.652;2023-07-29T10:35:48;30.34;71.06
68450;SHT30;67758;39.572;2.652;2023-07-29T10:38:15;30.27;71.92
68450;SHT30;67758;39.572;2.652;2023-07-29T10:40:51;30.59;70.18
68450;SHT30;67758;39.572;2.652;2023-07-29T10:43:40;32.20;65.69
68450;SHT30;67758;39.572;2.652;2023-07-29T10:48:43;33.33;62.71
68450;SHT30;67758;39.572;2.652;2023-07-29T10:51:34;33.53;62.35
68450;SHT30;67758;39.572;2.652;2023-07-29T10:54:03;33.67;61.96
68450;SHT30;67758;39.572;2.652;2023-07-29T10:56:33;34.07;60.84
68450;SHT30;67758;39.572;2.652;2023-07-29T11:01:57;35.02;59.16
68450;SHT30;67758;39.572;2.652;2023-07-29T11:04:29;35.56;58.40
68450;SHT30;67758;39.572;2.652;2023-07-29T11:15:15;34.94;59.28
68450;SHT30;67758;39.572;2.652;2023-07-29T11:20:12;34.79;60.62
68450;SHT30;67758;39.572;2.652;2023-07-29T11:22:38;34.69;60.06
68450;SHT30;67758;39.572;2.652;2023-07-29T11:25:05;34.38;60.80
68450;SHT30;67758;39.572;2.652;2023-07-29T11:27:32;33.98;62.03
68450;SHT30;67758;39.572;2.652;2023-07-29T11:30:03;34.36;61.05
68450;SHT30;67758;39.572;2.652;2023-07-29T11:32:31;34.74;60.37
68450;SHT30;67758;39.572;2.652;2023-07-29T11:35:01;34.61;60.84
68450;SHT30;67758;39.572;2.652;2023-07-29T11:37:27;34.87;60.27
68450;SHT30;67758;39.572;2.652;2023-07-29T11:39:53;34.99;59.56
68450;SHT30;67758;39.572;2.652;2023-07-29T11:42:18;34.95;59.77
68450;SHT30;67758;39.572;2.652;2023-07-29T11:44:45;34.77;60.19
68450;SHT30;67758;39.572;2.652;2023-07-29T11:47:12;34.64;60.55
68450;SHT30;67758;39.572;2.652;2023-07-29T11:49:39;34.99;59.61
68450;SHT30;67758;39.572;2.652;2023-07-29T11:52:09;34.62;60.35
68450;SHT30;67758;39.572;2.652;2023-07-29T11:54:38;34.78;59.87
68450;SHT30;67758;39.572;2.652;2023-07-29T11:57:08;34.88;60.06
68450;SHT30;67758;39.572;2.652;2023-07-29T11:59:36;35.10;59.32
68450;SHT30;67758;39.572;2.652;2023-07-29T12:02:06;35.25;58.69
68450;SHT30;67758;39.572;2.652;2023-07-29T12:04:32;35.00;58.97
68450;SHT30;67758;39.572;2.652;2023-07-29T12:06:59;34.99;59.04
68450;SHT30;67758;39.572;2.652;2023-07-29T12:09:25;34.79;59.44
68450;SHT30;67758;39.572;2.652;2023-07-29T12:11:52;34.87;59.15
68450;SHT30;67758;39.572;2.652;2023-07-29T12:14:18;34.99;58.88
68450;SHT30;67758;39.572;2.652;2023-07-29T12:16:44;35.54;57.62
68450;SHT30;67758;39.572;2.652;2023-07-29T12:19:13;35.03;58.64
68450;SHT30;67758;39.572;2.652;2023-07-29T12:21:41;35.30;57.71
68450;SHT30;67758;39.572;2.652;2023-07-29T12:24:07;35.10;58.27
68450;SHT30;67758;39.572;2.652;2023-07-29T12:26:33;35.20;57.96
68450;SHT30;67758;39.572;2.652;2023-07-29T12:28:59;35.35;57.55
68450;SHT30;67758;39.572;2.652;2023-07-29T12:31:31;35.36;57.71
68450;SHT30;67758;39.572;2.652;2023-07-29T12:34:00;34.94;58.58
68450;SHT30;67758;39.572;2.652;2023-07-29T12:36:45;35.19;57.85
68450;SHT30;67758;39.572;2.652;2023-07-29T12:39:27;34.96;58.18
68450;SHT30;67758;39.572;2.652;2023-07-29T12:41:55;34.89;58.07
68450;SHT30;67758;39.572;2.652;2023-07-29T12:44:33;35.25;57.43
68450;SHT30;67758;39.572;2.652;2023-07-29T12:47:01;34.99;57.86
68450;SHT30;67758;39.572;2.652;2023-07-29T12:49:26;34.84;58.07
68450;SHT30;67758;39.572;2.652;2023-07-29T12:51:54;34.95;57.98
68450;SHT30;67758;39.572;2.652;2023-07-29T12:54:19;34.89;57.84
68450;SHT30;67758;39.572;2.652;2023-07-29T12:56:45;34.95;57.64
68450;SHT30;67758;39.572;2.652;2023-07-29T12:59:10;34.87;57.51
68450;SHT30;67758;39.572;2.652;2023-07-29T13:01:36;34.81;57.77
68450;SHT30;67758;39.572;2.652;2023-07-29T13:04:01;34.74;57.81
68450;SHT30;67758;39.572;2.652;2023-07-29T13:06:27;34.55;58.12
68450;SHT30;67758;39.572;2.652;2023-07-29T13:08:53;34.85;57.11
68450;SHT30;67758;39.572;2.652;2023-07-29T13:11:18;35.00;56.38
68450;SHT30;67758;39.572;2.652;2023-07-29T13:13:44;35.05;56.43
68450;SHT30;67758;39.572;2.652;2023-07-29T13:16:11;34.94;56.14
68450;SHT30;67758;39.572;2.652;2023-07-29T13:18:37;35.00;55.71
68450;SHT30;67758;39.572;2.652;2023-07-29T13:21:03;35.15;55.47
68450;SHT30;67758;39.572;2.652;2023-07-29T13:23:29;35.36;55.17
68450;SHT30;67758;39.572;2.652;2023-07-29T13:25:55;35.45;55.26
68450;SHT30;67758;39.572;2.652;2023-07-29T13:28:21;35.57;54.94
68450;SHT30;67758;39.572;2.652;2023-07-29T13:30:47;35.26;55.88
68450;SHT30;67758;39.572;2.652;2023-07-29T13:33:13;35.16;55.61
68450;SHT30;67758;39.572;2.652;2023-07-29T13:35:38;35.38;55.29
68450;SHT30;67758;39.572;2.652;2023-07-29T13:38:04;35.81;54.63
68450;SHT30;67758;39.572;2.652;2023-07-29T13:40:30;35.98;54.24
68450;SHT30;67758;39.572;2.652;2023-07-29T13:42:55;36.27;53.07
68450;SHT30;67758;39.572;2.652;2023-07-29T13:45:21;35.43;54.79
68450;SHT30;67758;39.572;2.652;2023-07-29T13:47:48;34.99;55.65
68450;SHT30;67758;39.572;2.652;2023-07-29T13:50:14;34.62;56.88
68450;SHT30;67758;39.572;2.652;2023-07-29T13:52:40;34.64;56.71
68450;SHT30;67758;39.572;2.652;2023-07-29T13:55:06;34.55;57.14
68450;SHT30;67758;39.572;2.652;2023-07-29T13:57:32;34.43;57.93
68450;SHT30;67758;39.572;2.652;2023-07-29T13:59:58;33.81;59.44
68450;SHT30;67758;39.572;2.652;2023-07-29T14:02:24;34.18;58.26
68450;SHT30;67758;39.572;2.652;2023-07-29T14:04:52;34.25;58.57
68450;SHT30;67758;39.572;2.652;2023-07-29T14:07:17;34.00;59.03
68450;SHT30;67758;39.572;2.652;2023-07-29T14:09:43;34.17;58.62
68450;SHT30;67758;39.572;2.652;2023-07-29T14:12:08;33.76;58.78
68450;SHT30;67758;39.572;2.652;2023-07-29T14:14:38;33.55;59.10
68450;SHT30;67758;39.572;2.652;2023-07-29T14:17:04;33.73;58.64
68450;SHT30;67758;39.572;2.652;2023-07-29T14:19:30;33.90;58.90
68450;SHT30;67758;39.572;2.652;2023-07-29T14:21:56;33.96;59.02
68450;SHT30;67758;39.572;2.652;2023-07-29T14:24:21;34.10;59.17
68450;SHT30;67758;39.572;2.652;2023-07-29T14:26:48;34.65;58.26
68450;SHT30;67758;39.572;2.652;2023-07-29T14:29:13;35.08;56.93
68450;SHT30;67758;39.572;2.652;2023-07-29T14:31:39;35.20;56.23
68450;SHT30;67758;39.572;2.652;2023-07-29T14:34:05;35.45;55.84
68450;SHT30;67758;39.572;2.652;2023-07-29T14:36:30;35.56;55.39
68450;SHT30;67758;39.572;2.652;2023-07-29T14:38:56;35.32;55.80
68450;SHT30;67758;39.572;2.652;2023-07-29T14:41:21;35.22;56.09
68450;SHT30;67758;39.572;2.652;2023-07-29T14:43:47;35.29;55.96
68450;SHT30;67758;39.572;2.652;2023-07-29T14:46:13;35.91;54.69
68450;SHT30;67758;39.572;2.652;2023-07-29T14:48:38;35.81;54.89
68450;SHT30;67758;39.572;2.652;2023-07-29T14:51:04;35.30;56.00
68450;SHT30;67758;39.572;2.652;2023-07-29T14:53:29;35.91;55.21
68450;SHT30;67758;39.572;2.652;2023-07-29T14:55:55;36.16;54.44
68450;SHT30;67758;39.572;2.652;2023-07-29T14:58:21;36.01;54.74
68450;SHT30;67758;39.572;2.652;2023-07-29T15:00:46;35.74;55.23
68450;SHT30;67758;39.572;2.652;2023-07-29T15:03:12;36.10;54.59
68450;SHT30;67758;39.572;2.652;2023-07-29T15:05:37;35.51;55.52
68450;SHT30;67758;39.572;2.652;2023-07-29T15:08:03;35.63;55.24
68450;SHT30;67758;39.572;2.652;2023-07-29T15:10:29;35.70;55.24
68450;SHT30;67758;39.572;2.652;2023-07-29T15:12:54;35.35;56.20
68450;SHT30;67758;39.572;2.652;2023-07-29T15:15:20;35.96;55.17
68450;SHT30;67758;39.572;2.652;2023-07-29T15:17:45;36.17;54.63
68450;SHT30;67758;39.572;2.652;2023-07-29T15:20:11;35.81;55.20
68450;SHT30;67758;39.572;2.652;2023-07-29T15:22:37;35.60;55.62
68450;SHT30;67758;39.572;2.652;2023-07-29T15:25:04;35.96;54.76
68450;SHT30;67758;39.572;2.652;2023-07-29T15:27:30;35.72;55.29
68450;SHT30;67758;39.572;2.652;2023-07-29T15:29:55;35.97;54.72
68450;SHT30;67758;39.572;2.652;2023-07-29T15:32:21;36.07;54.58
68450;SHT30;67758;39.572;2.652;2023-07-29T15:34:48;35.50;55.63
68450;SHT30;67758;39.572;2.652;2023-07-29T15:37:14;35.76;54.92
68450;SHT30;67758;39.572;2.652;2023-07-29T15:39:39;35.83;55.16
68450;SHT30;67758;39.572;2.652;2023-07-29T15:42:05;35.53;55.70
68450;SHT30;67758;39.572;2.652;2023-07-29T15:44:30;35.54;55.86
68450;SHT30;67758;39.572;2.652;2023-07-29T15:46:56;35.64;55.63